createdAt,value
2018-12-01T14:28:53.471Z,9.10
2018-12-01T14:29:53.446Z,8.64
2018-12-01T14:31:02.385Z,8.24
2018-12-01T14:32:01.383Z,8.01
2018-12-01T14:34:12.244Z,7.47
2018-12-01T14:35:19.185Z,7.31
2018-12-01T14:36:12.095Z,7.14
2018-12-01T14:37:12.093Z,7.05
2018-12-01T14:38:12.075Z,6.93
2018-12-01T14:39:12.071Z,6.78
2018-12-01T14:40:12.129Z,6.72
2018-12-01T14:41:12.088Z,6.60
2018-12-01T14:42:19.233Z,6.51
2018-12-01T14:43:12.278Z,6.52
2018-12-01T14:44:12.222Z,6.33
2018-12-01T14:45:12.183Z,6.36
2018-12-01T14:46:12.047Z,6.38
2018-12-01T14:47:12.043Z,6.26
2018-12-01T14:48:12.146Z,6.24
2018-12-01T14:49:11.974Z,6.16
2018-12-01T14:50:12.001Z,6.16
2018-12-01T14:51:12.015Z,6.12
2018-12-01T14:52:11.977Z,6.11
2018-12-01T14:53:14.554Z,5.99
2018-12-01T14:54:11.977Z,5.98
2018-12-01T14:55:12.673Z,5.93
2018-12-01T14:56:12.004Z,5.93
2018-12-01T14:57:11.994Z,5.82
2018-12-01T14:58:11.909Z,5.90
2018-12-01T14:59:11.900Z,5.80
2018-12-01T15:00:11.888Z,5.82
2018-12-01T15:01:11.823Z,5.87
2018-12-01T15:02:11.834Z,5.90
2018-12-01T15:03:11.844Z,5.83
2018-12-01T15:04:11.835Z,5.86
2018-12-01T15:05:11.838Z,5.84
2018-12-01T15:06:11.919Z,5.76
2018-12-01T15:07:13.606Z,5.69
2018-12-01T15:08:11.794Z,5.72
2018-12-01T15:09:13.285Z,5.68
2018-12-01T15:10:11.809Z,5.68
2018-12-01T15:11:12.397Z,5.71
2018-12-01T15:12:11.798Z,5.66
2018-12-01T15:13:11.831Z,5.56
2018-12-01T15:14:11.812Z,5.62
2018-12-01T15:15:11.730Z,5.56
2018-12-01T15:16:11.721Z,5.64
2018-12-01T15:17:11.664Z,5.54
2018-12-01T15:18:11.669Z,5.59
2018-12-01T15:19:11.709Z,5.50
2018-12-01T15:20:11.742Z,5.54
2018-12-01T15:21:19.799Z,5.56
2018-12-01T15:22:11.658Z,5.48
2018-12-01T15:23:11.922Z,5.57
2018-12-01T15:24:11.633Z,5.56
2018-12-01T15:25:11.609Z,5.61
2018-12-01T15:26:19.730Z,5.53
2018-12-01T15:27:11.670Z,5.53
2018-12-01T15:28:12.574Z,5.51
2018-12-01T15:29:11.569Z,5.53
2018-12-01T15:30:11.548Z,5.47
2018-12-01T15:31:11.560Z,5.39
2018-12-01T15:32:12.341Z,5.41
2018-12-01T15:33:11.498Z,5.41
2018-12-01T15:34:11.527Z,5.39
2018-12-01T15:35:11.460Z,5.36
2018-12-01T15:36:11.517Z,5.39
2018-12-01T15:37:11.479Z,5.26
2018-12-01T15:38:11.491Z,5.33
2018-12-01T15:39:11.444Z,5.30
2018-12-01T15:40:11.480Z,5.30
2018-12-01T15:41:11.470Z,5.35
2018-12-01T15:42:11.409Z,5.35
2018-12-01T15:43:11.492Z,5.30
2018-12-01T15:44:11.395Z,5.44
2018-12-01T15:45:11.385Z,5.36
2018-12-01T15:46:11.402Z,5.33
2018-12-01T15:47:11.345Z,5.41
2018-12-01T15:48:11.357Z,5.33
2018-12-01T15:49:11.375Z,5.38
2018-12-01T15:50:11.310Z,5.35
2018-12-01T15:51:11.345Z,5.30
2018-12-01T15:52:11.333Z,5.36
2018-12-01T15:53:11.289Z,5.32
2018-12-01T15:54:11.294Z,5.35
2018-12-01T15:55:11.267Z,5.30
2018-12-01T15:56:11.299Z,5.32
2018-12-01T15:57:19.302Z,5.35
2018-12-01T15:58:12.035Z,5.35
2018-12-01T15:59:11.227Z,5.23
2018-12-01T16:00:11.261Z,5.30
2018-12-01T16:01:11.207Z,5.20
2018-12-01T16:02:12.281Z,5.33
2018-12-01T16:03:11.198Z,5.20
2018-12-01T16:04:11.151Z,5.29
2018-12-01T16:05:11.151Z,5.23
2018-12-01T16:06:11.148Z,5.39
2018-12-01T16:07:11.161Z,5.25
2018-12-01T16:08:11.122Z,5.33
2018-12-01T16:09:11.139Z,5.32
2018-12-01T16:10:11.118Z,5.28
2018-12-01T16:11:11.132Z,5.21
2018-12-01T16:12:12.093Z,5.28
2018-12-01T16:13:11.055Z,5.25
2018-12-01T16:14:11.042Z,5.33
2018-12-01T16:15:11.077Z,5.28
2018-12-01T16:16:11.084Z,5.28
2018-12-01T16:17:13.863Z,5.35
2018-12-01T16:18:11.037Z,5.36
2018-12-01T16:19:18.170Z,5.32
2018-12-01T16:20:11.011Z,5.38
2018-12-01T16:21:11.023Z,5.35
2018-12-01T16:22:12.583Z,5.30
2018-12-01T16:23:10.957Z,5.39
2018-12-01T16:24:10.942Z,5.47
2018-12-01T16:25:10.992Z,5.41
2018-12-01T16:26:11.943Z,5.39
2018-12-01T16:27:15.514Z,5.44
2018-12-01T16:28:14.723Z,5.44
2018-12-01T16:45:42.489Z,5.68
2018-12-01T16:46:43.520Z,5.68
2018-12-01T16:47:42.559Z,5.66
2018-12-01T16:48:42.409Z,5.64
2018-12-01T16:49:42.435Z,5.72
2018-12-01T16:50:42.400Z,5.66
2018-12-01T16:51:42.534Z,5.64
2018-12-01T16:52:52.674Z,5.72
2018-12-01T16:53:42.560Z,5.75
2018-12-01T16:54:42.476Z,5.76
2018-12-01T16:55:42.414Z,5.75
2018-12-01T16:56:42.771Z,5.71
2018-12-01T16:57:42.605Z,5.84
2018-12-01T16:58:42.339Z,5.87
2018-12-01T16:59:42.521Z,5.87
2018-12-01T17:00:42.845Z,5.89
2018-12-01T17:01:42.259Z,5.87
2018-12-01T17:02:42.232Z,5.84
2018-12-01T17:03:42.236Z,5.89
2018-12-01T17:04:42.319Z,5.98
2018-12-01T17:05:42.246Z,5.90
2018-12-01T17:06:42.253Z,5.84
2018-12-01T17:07:49.456Z,5.84
2018-12-01T17:08:49.244Z,5.80
2018-12-01T17:09:42.270Z,5.87
2018-12-01T17:10:42.317Z,5.87
2018-12-01T17:11:45.302Z,5.87
2018-12-01T17:15:16.444Z,5.91
2018-12-01T17:16:16.310Z,5.90
2018-12-01T17:17:16.553Z,5.90
2018-12-01T17:18:16.268Z,5.76
2018-12-01T17:19:16.587Z,5.83
2018-12-01T17:20:16.346Z,5.87
2018-12-01T17:21:16.430Z,5.91
2018-12-01T17:22:16.320Z,5.91
2018-12-01T17:23:16.263Z,5.89
2018-12-01T17:24:17.235Z,5.90
2018-12-01T17:25:16.258Z,5.84
2018-12-01T17:26:16.290Z,5.82
2018-12-01T17:27:16.275Z,5.86
2018-12-01T17:28:16.244Z,5.80
2018-12-01T17:29:16.345Z,5.75
2018-12-01T17:30:16.241Z,5.86
2018-12-01T17:31:16.278Z,5.80
2018-12-01T17:32:16.204Z,5.84
2018-12-01T17:33:16.828Z,5.87
2018-12-01T17:34:16.160Z,5.75
2018-12-01T17:35:16.132Z,5.72
2018-12-01T17:36:16.152Z,5.75
2018-12-01T17:37:16.158Z,5.69
2018-12-01T17:38:16.103Z,5.68
2018-12-01T17:39:16.790Z,5.65
2018-12-01T17:40:16.092Z,5.64
2018-12-01T17:41:24.291Z,5.59
2018-12-01T17:43:33.024Z,5.54
2018-12-01T17:44:32.651Z,5.57
2018-12-01T17:45:32.633Z,5.46
2018-12-01T17:46:32.907Z,5.48
2018-12-01T17:47:32.743Z,5.53
2018-12-01T17:48:32.613Z,5.48
2018-12-01T17:49:32.672Z,5.44
2018-12-01T17:50:32.539Z,5.51
2018-12-01T17:51:32.575Z,5.48
2018-12-01T17:52:40.833Z,5.46
2018-12-01T17:53:40.664Z,5.41
2018-12-01T17:54:32.893Z,5.47
2018-12-01T17:55:32.529Z,5.43
2018-12-01T17:56:32.625Z,5.38
2018-12-01T17:57:32.469Z,5.39
2018-12-01T17:58:32.471Z,5.38
2018-12-01T17:59:32.446Z,5.43
2018-12-01T18:00:32.428Z,5.39
2018-12-01T18:01:32.437Z,5.47
2018-12-01T18:02:32.442Z,5.41
2018-12-01T18:03:32.417Z,5.35
2018-12-01T18:04:32.399Z,5.41
2018-12-01T18:05:32.390Z,5.32
2018-12-01T18:06:32.560Z,5.41
2018-12-01T18:07:32.413Z,5.28
2018-12-01T18:08:32.336Z,5.39
2018-12-01T18:09:32.359Z,5.35
2018-12-01T18:10:32.330Z,5.29
2018-12-01T18:11:32.308Z,5.30
2018-12-01T18:12:32.331Z,5.35
2018-12-01T18:13:32.283Z,5.41
2018-12-01T18:14:32.284Z,5.33
2018-12-01T18:15:32.279Z,5.38
2018-12-01T18:16:32.265Z,5.29
2018-12-01T18:17:32.300Z,5.33
2018-12-01T18:18:32.261Z,5.39
2018-12-01T18:19:32.998Z,5.39
2018-12-01T18:20:32.328Z,5.44
2018-12-01T18:21:32.207Z,5.41
2018-12-01T18:22:32.234Z,5.41
2018-12-01T18:23:32.194Z,5.35
2018-12-01T18:24:32.170Z,5.33
2018-12-01T18:25:32.154Z,5.28
2018-12-01T18:26:32.145Z,5.35
2018-12-01T18:27:32.184Z,5.30
2018-12-01T18:28:32.157Z,5.30
2018-12-01T18:29:32.115Z,5.30
2018-12-01T18:30:32.158Z,5.36
2018-12-01T18:31:32.093Z,5.35
2018-12-01T18:32:32.581Z,5.25
2018-12-01T18:33:32.099Z,5.17
2018-12-01T18:34:32.094Z,5.28
2018-12-01T18:35:32.077Z,5.21
2018-12-01T18:36:32.044Z,5.15
2018-12-01T18:37:32.075Z,5.17
2018-12-01T18:38:32.037Z,5.23
2018-12-01T18:39:32.018Z,5.18
2018-12-01T18:40:32.012Z,5.25
2018-12-01T18:41:32.000Z,5.23
2018-12-01T18:42:32.033Z,5.15
2018-12-01T18:43:31.983Z,5.23
2018-12-01T18:44:31.974Z,5.18
2018-12-01T18:45:31.993Z,5.07
2018-12-01T18:46:31.954Z,5.08
2018-12-01T18:47:31.972Z,5.17
2018-12-01T18:48:31.983Z,5.25
2018-12-01T18:49:32.015Z,5.21
2018-12-01T18:50:31.911Z,5.29
2018-12-01T18:51:31.905Z,5.25
2018-12-01T18:52:31.943Z,5.30
2018-12-01T18:53:31.887Z,5.29
2018-12-01T18:54:31.860Z,5.25
2018-12-01T18:55:31.909Z,5.17
2018-12-01T18:56:31.833Z,5.28
2018-12-01T18:57:31.868Z,5.17
2018-12-01T18:58:31.831Z,5.30
2018-12-01T18:59:31.794Z,5.36
2018-12-01T19:00:31.794Z,5.33
2018-12-01T19:01:31.788Z,5.33
2018-12-01T19:02:31.785Z,5.32
2018-12-01T19:03:31.775Z,5.20
2018-12-01T19:04:31.756Z,5.15
2018-12-01T19:05:31.743Z,5.17
2018-12-01T19:06:31.728Z,5.26
2018-12-01T19:07:31.735Z,5.23
2018-12-01T19:08:31.745Z,5.20
2018-12-01T19:09:31.722Z,5.28
2018-12-01T19:10:32.449Z,5.26
2018-12-01T19:11:31.689Z,5.25
2018-12-01T19:12:31.689Z,5.28
2018-12-01T19:13:31.662Z,5.25
2018-12-01T19:14:31.752Z,5.36
2018-12-01T19:15:31.645Z,5.20
2018-12-01T19:16:31.648Z,5.15
2018-12-01T19:17:35.021Z,5.14
2018-12-01T19:18:31.610Z,5.15
2018-12-01T19:19:31.597Z,5.26
2018-12-01T19:20:31.593Z,5.23
2018-12-01T19:21:31.581Z,5.17
2018-12-01T19:22:31.585Z,5.11
2018-12-01T19:23:31.548Z,5.12
2018-12-01T19:24:31.562Z,5.15
2018-12-01T19:25:31.519Z,5.15
2018-12-01T19:26:31.518Z,5.15
2018-12-01T19:27:31.526Z,5.05
2018-12-01T19:28:31.516Z,5.04
2018-12-01T19:29:31.481Z,5.12
2018-12-01T19:30:31.472Z,5.11
2018-12-01T19:31:31.503Z,5.11
2018-12-01T19:32:31.483Z,5.12
2018-12-01T19:33:31.463Z,5.12
2018-12-01T19:34:31.433Z,5.04
2018-12-01T19:35:31.426Z,5.00
2018-12-01T19:36:31.429Z,5.04
2018-12-01T19:37:31.420Z,4.99
2018-12-01T19:38:31.447Z,4.94
2018-12-01T19:39:31.393Z,4.93
2018-12-01T19:40:32.258Z,5.00
2018-12-01T19:41:31.411Z,4.94
2018-12-01T19:42:31.464Z,4.93
2018-12-01T19:43:36.573Z,4.93
2018-12-01T19:44:31.335Z,4.89
2018-12-01T19:45:31.348Z,4.94
2018-12-01T19:46:31.328Z,4.84
2018-12-01T19:47:31.343Z,5.00
2018-12-01T19:48:31.686Z,4.97
2018-12-01T19:50:48.724Z,4.99
2018-12-01T19:51:57.522Z,5.02
2018-12-01T19:52:48.877Z,5.04
2018-12-01T19:53:48.747Z,4.99
2018-12-01T19:54:48.306Z,5.07
2018-12-01T19:55:48.867Z,5.00
2018-12-01T19:56:48.553Z,5.02
2018-12-01T19:57:48.207Z,4.99
2018-12-01T19:58:48.210Z,5.04
2018-12-01T19:59:49.552Z,5.00
2018-12-01T20:00:48.401Z,5.10
2018-12-01T20:01:48.751Z,5.05
2018-12-01T20:02:48.209Z,5.12
2018-12-01T20:03:48.582Z,5.07
2018-12-01T20:04:57.399Z,4.99
2018-12-01T20:06:01.189Z,5.05
2018-12-01T20:09:15.681Z,4.99
2018-12-01T20:13:29.526Z,4.99
2018-12-01T20:17:33.845Z,4.90
2018-12-01T20:22:31.222Z,4.92
2018-12-01T20:23:31.491Z,4.87
2018-12-01T20:26:21.307Z,4.77
2018-12-01T20:27:28.338Z,4.80
2018-12-01T20:29:37.215Z,4.84
2018-12-01T20:30:37.422Z,4.75
2018-12-01T20:31:37.236Z,4.78
2018-12-01T20:34:16.385Z,4.71
2018-12-01T20:35:18.765Z,4.71
2018-12-01T20:36:15.608Z,4.70
2018-12-01T20:37:15.569Z,4.71
2018-12-01T20:38:15.519Z,4.60
2018-12-01T20:39:15.416Z,4.59
2018-12-01T20:40:15.451Z,4.60
2018-12-01T20:41:15.440Z,4.68
2018-12-01T20:42:15.456Z,4.70
2018-12-01T20:43:16.525Z,4.63
2018-12-01T20:44:15.400Z,4.59
2018-12-01T20:45:15.535Z,4.59
2018-12-01T20:46:15.433Z,4.59
2018-12-01T20:47:15.338Z,4.59
2018-12-01T20:48:15.343Z,4.70
2018-12-01T20:49:15.511Z,4.59
2018-12-01T20:50:15.906Z,4.60
2018-12-01T20:51:15.302Z,4.59
2018-12-01T20:52:15.875Z,4.56
2018-12-01T20:53:15.466Z,4.67
2018-12-01T20:54:16.225Z,4.66
2018-12-01T20:55:23.335Z,4.68
2018-12-01T20:56:23.452Z,4.71
2018-12-01T20:57:15.700Z,4.68
2018-12-01T20:58:15.301Z,4.68
2018-12-01T20:59:15.235Z,4.70
2018-12-01T21:00:15.363Z,4.71
2018-12-01T21:01:15.181Z,4.70
2018-12-01T21:02:15.396Z,4.73
2018-12-01T21:03:15.161Z,4.63
2018-12-01T21:04:15.243Z,4.63
2018-12-01T21:05:15.244Z,4.62
2018-12-01T21:07:55.514Z,4.63
2018-12-01T21:08:56.103Z,4.59
2018-12-01T21:10:11.979Z,4.58
2018-12-01T21:10:56.029Z,4.56
2018-12-01T21:11:55.831Z,4.59
2018-12-01T21:12:55.468Z,4.62
2018-12-01T21:13:57.701Z,4.60
2018-12-01T21:14:55.428Z,4.60
2018-12-01T21:15:56.616Z,4.56
2018-12-01T21:16:55.462Z,4.60
2018-12-01T21:17:55.844Z,4.59
2018-12-01T21:18:56.364Z,4.60
2018-12-01T21:19:55.468Z,4.60
2018-12-01T21:20:56.329Z,4.45
2018-12-01T21:21:56.244Z,4.52
2018-12-01T21:22:57.561Z,4.55
2018-12-01T21:23:55.437Z,4.56
2018-12-01T21:24:55.628Z,4.52
2018-12-01T21:25:57.625Z,4.52
2018-12-01T21:26:58.493Z,4.50
2018-12-01T21:27:55.219Z,4.50
2018-12-01T21:28:55.132Z,4.49
2018-12-01T21:29:56.014Z,4.50
2018-12-01T21:30:55.285Z,4.56
2018-12-01T21:31:55.134Z,4.52
2018-12-01T21:32:55.084Z,4.44
2018-12-01T21:33:55.261Z,4.45
2018-12-01T21:34:55.030Z,4.45
2018-12-01T21:37:34.990Z,4.48
2018-12-01T21:38:34.648Z,4.38
2018-12-01T21:39:34.516Z,4.40
2018-12-01T21:40:34.542Z,4.37
2018-12-01T21:41:34.611Z,4.32
2018-12-01T21:42:35.602Z,4.38
2018-12-01T21:43:36.047Z,4.23
2018-12-01T21:44:34.595Z,4.31
2018-12-01T21:48:11.295Z,4.37
2018-12-01T21:49:10.394Z,4.26
2018-12-01T21:50:10.647Z,4.31
2018-12-01T21:51:10.173Z,4.40
2018-12-01T21:52:10.920Z,4.32
2018-12-01T21:53:10.790Z,4.23
2018-12-01T21:54:20.261Z,4.26
2018-12-01T21:55:10.957Z,4.24
2018-12-01T21:56:10.984Z,4.20
2018-12-01T21:57:10.305Z,4.24
2018-12-01T21:58:10.902Z,4.24
2018-12-01T21:59:10.181Z,4.23
2018-12-01T22:00:10.102Z,4.30
2018-12-01T22:01:11.053Z,4.20
2018-12-01T22:02:11.343Z,4.23
2018-12-01T22:03:10.123Z,4.26
2018-12-01T22:04:12.361Z,4.31
2018-12-01T22:07:18.370Z,4.23
2018-12-01T22:08:30.823Z,4.26
2018-12-01T22:10:36.364Z,4.42
2018-12-01T22:11:49.463Z,4.38
2018-12-01T22:12:47.028Z,4.22
2018-12-01T22:13:46.219Z,4.37
2018-12-01T22:15:57.810Z,4.34
2018-12-01T22:31:55.142Z,4.26
2018-12-01T22:49:47.334Z,4.23
2018-12-01T22:50:47.908Z,4.20
2018-12-01T22:51:47.505Z,4.24
2018-12-01T22:52:47.254Z,4.31
2018-12-01T22:53:48.189Z,4.17
2018-12-01T22:54:47.204Z,4.17
2018-12-01T22:55:47.246Z,4.24
2018-12-01T22:56:47.184Z,4.23
2018-12-01T22:57:47.209Z,4.23
2018-12-01T22:58:47.228Z,4.24
2018-12-01T22:59:47.177Z,4.19
2018-12-01T23:00:47.161Z,4.24
2018-12-01T23:01:47.170Z,4.20
2018-12-01T23:02:47.161Z,4.22
2018-12-01T23:03:47.163Z,4.20
2018-12-01T23:04:47.170Z,4.12
2018-12-01T23:05:47.211Z,4.20
2018-12-01T23:07:01.932Z,4.17
2018-12-01T23:07:56.552Z,4.24
2018-12-01T23:09:59.538Z,4.24
2018-12-01T23:36:19.708Z,4.19
2018-12-01T23:37:19.770Z,4.24
2018-12-01T23:38:19.715Z,4.28
2018-12-01T23:39:19.627Z,4.28
2018-12-01T23:40:20.267Z,4.31
2018-12-01T23:41:19.642Z,4.31
2018-12-01T23:42:19.560Z,4.20
2018-12-01T23:43:19.603Z,4.32
2018-12-01T23:44:19.568Z,4.26
2018-12-01T23:45:19.511Z,4.32
2018-12-01T23:46:20.137Z,4.37
2018-12-01T23:47:19.515Z,4.34
2018-12-01T23:48:19.488Z,4.31
2018-12-01T23:49:19.487Z,4.23
2018-12-01T23:50:19.475Z,4.37
2018-12-01T23:51:19.472Z,4.26
2018-12-01T23:52:19.458Z,4.23
2018-12-01T23:53:19.455Z,4.37
2018-12-01T23:54:19.478Z,4.40
2018-12-01T23:55:19.470Z,4.26
2018-12-01T23:56:19.408Z,4.31
2018-12-01T23:57:19.431Z,4.34
2018-12-01T23:58:19.382Z,4.32
2018-12-01T23:59:19.390Z,4.32
